UTA137 USRR-UNNT
Flight info
| Callsign | UTA137 |
|---|---|
| Flight time | 1h 17m |
| Altitude | 35000 |
| Route | KARPO1E KARPO R229 XV B228 MINOR B925 LAMGA LAMGA1K |
| Aircraft | B738/M-SDE2E3FGHIRWXY/LB1 |
Departure
| Time | 2026-04-25 16:57 |
|---|---|
| Airport | Surgut International Airport (USRR) |
Arrival
| Time | 2026-04-25 18:14 |
|---|---|
| Airport | Novosibirsk Tolmachevo Airport (UNNT) |
| Time | Latitude | Longitude | Altitude | Speed | Heading |
|---|---|---|---|---|---|
| 2026-04-25 16:32 | 61.34128 | 73.39827 | 207 ft | 0 kts | 359° |
| 2026-04-25 16:52 | 61.34148 | 73.39823 | 214 ft | 8 kts | 348° |
| 2026-04-25 16:52 | 61.34179 | 73.39727 | 207 ft | 9 kts | 267° |
| 2026-04-25 16:52 | 61.34178 | 73.39600 | 207 ft | 9 kts | 269° |
| 2026-04-25 16:52 | 61.34178 | 73.39474 | 207 ft | 8 kts | 269° |
| 2026-04-25 16:53 | 61.34176 | 73.39236 | 208 ft | 8 kts | 269° |
| 2026-04-25 16:53 | 61.34176 | 73.39124 | 213 ft | 8 kts | 269° |
| 2026-04-25 16:53 | 61.34175 | 73.39012 | 210 ft | 7 kts | 269° |
| 2026-04-25 16:54 | 61.34189 | 73.38915 | 209 ft | 7 kts | 314° |
| 2026-04-25 16:54 | 61.34236 | 73.38902 | 212 ft | 7 kts | 360° |
| 2026-04-25 16:54 | 61.34261 | 73.38902 | 205 ft | 0 kts | 360° |
| 2026-04-25 16:55 | 61.34262 | 73.38902 | 205 ft | 1 kts | 360° |
| 2026-04-25 16:55 | 61.34296 | 73.38902 | 210 ft | 10 kts | 360° |
| 2026-04-25 16:56 | 61.34378 | 73.38941 | 197 ft | 9 kts | 58° |
| 2026-04-25 16:56 | 61.34385 | 73.39042 | 202 ft | 0 kts | 87° |
| 2026-04-25 16:56 | 61.34385 | 73.39110 | 207 ft | 25 kts | 89° |
| 2026-04-25 16:56 | 61.34388 | 73.39978 | 210 ft | 94 kts | 90° |
| 2026-04-25 16:57 | 61.34391 | 73.41760 | 225 ft | 149 kts | 90° |
| 2026-04-25 16:57 | 61.34402 | 73.43258 | 540 ft | 155 kts | 90° |
| 2026-04-25 16:57 | 61.34394 | 73.46436 | 1257 ft | 171 kts | 93° |
| 2026-04-25 16:57 | 61.34360 | 73.48890 | 2007 ft | 173 kts | 92° |
| 2026-04-25 16:58 | 61.34341 | 73.51480 | 2563 ft | 183 kts | 92° |
| 2026-04-25 16:58 | 61.34200 | 73.54287 | 2938 ft | 205 kts | 103° |
| 2026-04-25 16:58 | 61.33802 | 73.57180 | 3367 ft | 217 kts | 112° |
| 2026-04-25 16:58 | 61.33145 | 73.60177 | 3599 ft | 237 kts | 121° |
| 2026-04-25 16:59 | 61.32223 | 73.63076 | 4083 ft | 244 kts | 130° |
| 2026-04-25 16:59 | 61.31031 | 73.65750 | 4484 ft | 261 kts | 140° |
| 2026-04-25 16:59 | 61.29564 | 73.68067 | 5119 ft | 268 kts | 150° |
| 2026-04-25 16:59 | 61.27908 | 73.69845 | 5926 ft | 268 kts | 159° |
| 2026-04-25 17:00 | 61.26165 | 73.71298 | 6656 ft | 272 kts | 161° |
| 2026-04-25 17:00 | 61.24385 | 73.72707 | 7368 ft | 276 kts | 162° |
| 2026-04-25 17:00 | 61.22585 | 73.74133 | 8084 ft | 280 kts | 162° |
| 2026-04-25 17:00 | 61.20753 | 73.75603 | 8806 ft | 284 kts | 162° |
| 2026-04-25 17:01 | 61.18901 | 73.77106 | 9539 ft | 288 kts | 162° |
| 2026-04-25 17:01 | 61.17019 | 73.78645 | 10085 ft | 298 kts | 162° |
| 2026-04-25 17:01 | 61.15017 | 73.80284 | 10247 ft | 320 kts | 161° |
| 2026-04-25 17:01 | 61.12879 | 73.82041 | 10421 ft | 341 kts | 161° |
| 2026-04-25 17:02 | 61.10622 | 73.83905 | 10749 ft | 355 kts | 161° |
| 2026-04-25 17:02 | 61.08314 | 73.85817 | 11333 ft | 360 kts | 161° |
| 2026-04-25 17:02 | 61.05981 | 73.87751 | 12035 ft | 363 kts | 161° |
| 2026-04-25 17:02 | 61.03630 | 73.89698 | 12757 ft | 365 kts | 161° |
| 2026-04-25 17:03 | 61.01258 | 73.91657 | 13478 ft | 369 kts | 161° |
| 2026-04-25 17:03 | 60.98890 | 73.93607 | 14120 ft | 372 kts | 161° |
| 2026-04-25 17:03 | 60.96447 | 73.95617 | 14790 ft | 376 kts | 161° |
| 2026-04-25 17:03 | 60.94036 | 73.97596 | 15457 ft | 379 kts | 161° |
| 2026-04-25 17:04 | 60.91543 | 73.99640 | 16130 ft | 383 kts | 161° |
| 2026-04-25 17:04 | 60.89093 | 74.01644 | 16707 ft | 388 kts | 161° |
| 2026-04-25 17:04 | 60.86529 | 74.03737 | 17302 ft | 392 kts | 161° |
| 2026-04-25 17:04 | 60.83996 | 74.05818 | 18038 ft | 394 kts | 160° |
| 2026-04-25 17:05 | 60.81624 | 74.08750 | 18148 ft | 415 kts | 137° |
| 2026-04-25 17:05 | 60.80474 | 74.21082 | 17133 ft | 467 kts | 99° |
| 2026-04-25 17:05 | 60.79432 | 74.27173 | 18900 ft | 432 kts | 123° |
| 2026-04-25 17:06 | 60.77573 | 74.31581 | 20463 ft | 405 kts | 144° |
| 2026-04-25 17:06 | 60.75152 | 74.34331 | 21240 ft | 398 kts | 165° |
| 2026-04-25 17:06 | 60.72413 | 74.35094 | 21387 ft | 402 kts | 186° |
| 2026-04-25 17:06 | 60.69621 | 74.34333 | 21692 ft | 407 kts | 195° |
| 2026-04-25 17:07 | 60.66837 | 74.33151 | 22175 ft | 411 kts | 193° |
| 2026-04-25 17:07 | 60.63972 | 74.32583 | 22680 ft | 418 kts | 183° |
| 2026-04-25 17:07 | 60.61061 | 74.33257 | 23150 ft | 428 kts | 169° |
| 2026-04-25 17:07 | 60.58224 | 74.35217 | 23581 ft | 435 kts | 160° |
| 2026-04-25 17:08 | 60.55493 | 74.37979 | 23957 ft | 441 kts | 154° |
| 2026-04-25 17:08 | 60.52819 | 74.41112 | 24311 ft | 445 kts | 153° |
| 2026-04-25 17:08 | 60.50153 | 74.44348 | 24668 ft | 449 kts | 153° |
| 2026-04-25 17:08 | 60.47458 | 74.47576 | 25043 ft | 451 kts | 154° |
| 2026-04-25 17:09 | 60.44726 | 74.50764 | 25395 ft | 454 kts | 154° |
| 2026-04-25 17:09 | 60.41967 | 74.53919 | 25736 ft | 457 kts | 155° |
| 2026-04-25 17:09 | 60.39189 | 74.57064 | 26064 ft | 459 kts | 155° |
| 2026-04-25 17:09 | 60.36393 | 74.60221 | 26412 ft | 462 kts | 155° |
| 2026-04-25 17:10 | 60.34497 | 74.62361 | 26633 ft | 464 kts | 155° |
| 2026-04-25 17:10 | 60.30748 | 74.66588 | 27051 ft | 467 kts | 155° |
| 2026-04-25 17:10 | 60.27901 | 74.69794 | 27358 ft | 470 kts | 155° |
| 2026-04-25 17:10 | 60.25037 | 74.73015 | 27695 ft | 472 kts | 156° |
| 2026-04-25 17:11 | 60.22168 | 74.76236 | 27996 ft | 474 kts | 156° |
| 2026-04-25 17:11 | 60.19276 | 74.79476 | 28277 ft | 477 kts | 156° |
| 2026-04-25 17:11 | 60.16361 | 74.82734 | 28554 ft | 480 kts | 156° |
| 2026-04-25 17:11 | 60.13438 | 74.85997 | 28854 ft | 481 kts | 156° |
| 2026-04-25 17:12 | 60.10509 | 74.89259 | 29174 ft | 483 kts | 156° |
| 2026-04-25 17:12 | 60.07573 | 74.92522 | 29582 ft | 482 kts | 156° |
| 2026-04-25 17:12 | 60.04650 | 74.95767 | 29971 ft | 481 kts | 157° |
| 2026-04-25 17:12 | 60.01724 | 74.99008 | 30339 ft | 479 kts | 157° |
| 2026-04-25 17:13 | 59.98813 | 75.02223 | 30667 ft | 478 kts | 157° |
| 2026-04-25 17:13 | 59.97826 | 75.03312 | 30772 ft | 478 kts | 157° |
| 2026-04-25 17:13 | 59.92982 | 75.08642 | 31259 ft | 478 kts | 157° |
| 2026-04-25 17:13 | 59.90071 | 75.11837 | 31629 ft | 476 kts | 157° |
| 2026-04-25 17:14 | 59.87176 | 75.15010 | 31965 ft | 475 kts | 157° |
| 2026-04-25 17:14 | 59.84270 | 75.18186 | 32241 ft | 476 kts | 157° |
| 2026-04-25 17:14 | 59.81372 | 75.21348 | 32505 ft | 476 kts | 157° |
| 2026-04-25 17:14 | 59.78472 | 75.24508 | 32837 ft | 474 kts | 157° |
| 2026-04-25 17:15 | 59.75579 | 75.27654 | 33177 ft | 473 kts | 158° |
| 2026-04-25 17:15 | 59.72685 | 75.30791 | 33453 ft | 473 kts | 158° |
| 2026-04-25 17:15 | 59.69799 | 75.33912 | 33736 ft | 473 kts | 158° |
| 2026-04-25 17:15 | 59.66911 | 75.37029 | 34011 ft | 472 kts | 158° |
| 2026-04-25 17:16 | 59.64036 | 75.40128 | 34269 ft | 471 kts | 158° |
| 2026-04-25 17:16 | 59.61152 | 75.43230 | 34475 ft | 471 kts | 158° |
| 2026-04-25 17:16 | 59.58275 | 75.46319 | 34657 ft | 472 kts | 158° |
| 2026-04-25 17:16 | 59.55386 | 75.49413 | 34773 ft | 473 kts | 158° |
| 2026-04-25 17:17 | 59.49587 | 75.55611 | 34761 ft | 472 kts | 158° |
| 2026-04-25 17:17 | 59.43834 | 75.61741 | 34764 ft | 469 kts | 158° |
| 2026-04-25 17:18 | 59.38113 | 75.67808 | 34766 ft | 466 kts | 158° |
| 2026-04-25 17:18 | 59.33372 | 75.72817 | 34760 ft | 465 kts | 158° |
| 2026-04-25 17:19 | 59.26758 | 75.79778 | 34773 ft | 464 kts | 158° |
| 2026-04-25 17:19 | 59.21059 | 75.85755 | 34779 ft | 465 kts | 159° |
| 2026-04-25 17:20 | 59.16275 | 75.90766 | 34785 ft | 466 kts | 158° |
| 2026-04-25 17:20 | 59.10604 | 75.96791 | 34777 ft | 468 kts | 158° |
| 2026-04-25 17:21 | 59.04836 | 76.02927 | 34783 ft | 470 kts | 158° |
| 2026-04-25 17:21 | 58.99085 | 76.09011 | 34779 ft | 472 kts | 158° |
| 2026-04-25 17:22 | 58.94279 | 76.14071 | 34780 ft | 473 kts | 159° |
| 2026-04-25 17:22 | 58.87557 | 76.21119 | 34770 ft | 473 kts | 159° |
| 2026-04-25 17:23 | 58.81764 | 76.27168 | 34777 ft | 473 kts | 159° |
| 2026-04-25 17:23 | 58.75973 | 76.33193 | 34780 ft | 473 kts | 159° |
| 2026-04-25 17:24 | 58.70181 | 76.39196 | 34777 ft | 472 kts | 159° |
| 2026-04-25 17:24 | 58.64420 | 76.45145 | 34780 ft | 471 kts | 159° |
| 2026-04-25 17:25 | 58.58762 | 76.51543 | 34771 ft | 478 kts | 149° |
| 2026-04-25 17:25 | 58.54003 | 76.60296 | 34794 ft | 487 kts | 139° |
| 2026-04-25 17:26 | 58.49389 | 76.69795 | 34778 ft | 487 kts | 139° |
| 2026-04-25 17:26 | 58.44763 | 76.79226 | 34782 ft | 486 kts | 140° |
| 2026-04-25 17:27 | 58.40108 | 76.88552 | 34780 ft | 485 kts | 140° |
| 2026-04-25 17:27 | 58.36234 | 76.96246 | 34495 ft | 482 kts | 143° |
| 2026-04-25 17:28 | 58.33179 | 77.02310 | 34645 ft | 468 kts | 142° |
| 2026-04-25 17:28 | 58.30933 | 77.06753 | 34704 ft | 465 kts | 142° |
| 2026-04-25 17:28 | 58.26442 | 77.15581 | 34792 ft | 463 kts | 142° |
| 2026-04-25 17:29 | 58.21978 | 77.24319 | 34797 ft | 465 kts | 142° |
| 2026-04-25 17:29 | 58.17462 | 77.33136 | 34808 ft | 466 kts | 142° |
| 2026-04-25 17:30 | 58.12939 | 77.41940 | 34807 ft | 467 kts | 142° |
| 2026-04-25 17:30 | 58.08399 | 77.50745 | 34812 ft | 469 kts | 142° |
| 2026-04-25 17:31 | 58.03840 | 77.59553 | 34810 ft | 469 kts | 142° |
| 2026-04-25 17:31 | 57.99259 | 77.68370 | 34814 ft | 470 kts | 142° |
| 2026-04-25 17:32 | 57.94672 | 77.77162 | 34815 ft | 470 kts | 141° |
| 2026-04-25 17:32 | 57.90084 | 77.85923 | 34819 ft | 470 kts | 141° |
| 2026-04-25 17:33 | 57.85491 | 77.94660 | 34819 ft | 469 kts | 141° |
| 2026-04-25 17:33 | 57.80902 | 78.03355 | 34818 ft | 468 kts | 141° |
| 2026-04-25 17:34 | 57.76315 | 78.12013 | 34820 ft | 468 kts | 141° |
| 2026-04-25 17:34 | 57.71722 | 78.20648 | 34822 ft | 468 kts | 141° |
| 2026-04-25 17:35 | 57.67129 | 78.29251 | 34824 ft | 467 kts | 141° |
| 2026-04-25 17:35 | 57.62531 | 78.37831 | 34841 ft | 468 kts | 141° |
| 2026-04-25 17:36 | 57.57918 | 78.46405 | 34834 ft | 468 kts | 141° |
| 2026-04-25 17:36 | 57.53300 | 78.54957 | 34832 ft | 469 kts | 141° |
| 2026-04-25 17:37 | 57.48663 | 78.63512 | 34838 ft | 470 kts | 141° |
| 2026-04-25 17:37 | 57.44014 | 78.72057 | 34842 ft | 470 kts | 141° |
| 2026-04-25 17:38 | 57.40144 | 78.79146 | 34842 ft | 470 kts | 141° |
| 2026-04-25 17:38 | 57.34691 | 78.89099 | 34846 ft | 470 kts | 141° |
| 2026-04-25 17:39 | 57.30028 | 78.97578 | 34850 ft | 470 kts | 141° |
| 2026-04-25 17:39 | 57.25382 | 79.06095 | 34849 ft | 472 kts | 137° |
| 2026-04-25 17:40 | 57.21510 | 79.15930 | 34859 ft | 479 kts | 128° |
| 2026-04-25 17:40 | 57.17874 | 79.26199 | 34858 ft | 478 kts | 128° |
| 2026-04-25 17:41 | 57.14220 | 79.36418 | 34860 ft | 477 kts | 128° |
| 2026-04-25 17:41 | 57.10533 | 79.46560 | 34865 ft | 476 kts | 129° |
| 2026-04-25 17:42 | 57.06837 | 79.56628 | 34867 ft | 475 kts | 129° |
| 2026-04-25 17:42 | 57.03135 | 79.66666 | 34874 ft | 474 kts | 129° |
| 2026-04-25 17:43 | 56.99568 | 79.76301 | 34878 ft | 473 kts | 129° |
| 2026-04-25 17:43 | 56.95860 | 79.86281 | 34883 ft | 473 kts | 129° |
| 2026-04-25 17:44 | 56.92149 | 79.96228 | 34887 ft | 473 kts | 129° |
| 2026-04-25 17:44 | 56.88422 | 80.06180 | 34889 ft | 474 kts | 129° |
| 2026-04-25 17:45 | 56.85928 | 80.12815 | 34897 ft | 474 kts | 129° |
| 2026-04-25 17:45 | 56.80935 | 80.26043 | 34898 ft | 475 kts | 129° |
| 2026-04-25 17:46 | 56.77175 | 80.35960 | 34908 ft | 476 kts | 129° |
| 2026-04-25 17:46 | 56.73401 | 80.45870 | 34911 ft | 476 kts | 129° |
| 2026-04-25 17:47 | 56.69620 | 80.55760 | 34913 ft | 477 kts | 129° |
| 2026-04-25 17:47 | 56.65822 | 80.65654 | 34924 ft | 477 kts | 129° |
| 2026-04-25 17:48 | 56.60091 | 80.80503 | 34391 ft | 485 kts | 129° |
| 2026-04-25 17:48 | 56.58145 | 80.85524 | 33797 ft | 483 kts | 129° |
| 2026-04-25 17:49 | 56.56213 | 80.90501 | 33063 ft | 483 kts | 129° |
| 2026-04-25 17:49 | 56.54280 | 80.95474 | 32380 ft | 482 kts | 129° |
| 2026-04-25 17:49 | 56.52354 | 81.00416 | 31746 ft | 480 kts | 129° |
| 2026-04-25 17:49 | 56.50437 | 81.05330 | 31293 ft | 474 kts | 129° |
| 2026-04-25 17:50 | 56.49178 | 81.08551 | 30958 ft | 472 kts | 129° |
| 2026-04-25 17:50 | 56.46659 | 81.14981 | 30318 ft | 466 kts | 129° |
| 2026-04-25 17:50 | 56.44791 | 81.19735 | 29808 ft | 461 kts | 130° |
| 2026-04-25 17:50 | 56.42941 | 81.24435 | 29291 ft | 456 kts | 130° |
| 2026-04-25 17:51 | 56.41111 | 81.29076 | 28818 ft | 451 kts | 130° |
| 2026-04-25 17:51 | 56.39302 | 81.33654 | 28327 ft | 445 kts | 130° |
| 2026-04-25 17:51 | 56.37515 | 81.38165 | 27845 ft | 441 kts | 130° |
| 2026-04-25 17:51 | 56.35735 | 81.42652 | 27374 ft | 436 kts | 130° |
| 2026-04-25 17:52 | 56.33977 | 81.47074 | 26899 ft | 432 kts | 130° |
| 2026-04-25 17:52 | 56.33410 | 81.48499 | 26744 ft | 431 kts | 130° |
| 2026-04-25 17:52 | 56.30519 | 81.55749 | 25965 ft | 425 kts | 130° |
| 2026-04-25 17:52 | 56.28804 | 81.60042 | 25520 ft | 421 kts | 130° |
| 2026-04-25 17:53 | 56.27097 | 81.64306 | 25068 ft | 418 kts | 130° |
| 2026-04-25 17:53 | 56.25399 | 81.68539 | 24624 ft | 415 kts | 130° |
| 2026-04-25 17:53 | 56.23718 | 81.72723 | 24174 ft | 413 kts | 130° |
| 2026-04-25 17:53 | 56.22036 | 81.76903 | 23725 ft | 410 kts | 130° |
| 2026-04-25 17:54 | 56.20365 | 81.81048 | 23219 ft | 408 kts | 130° |
| 2026-04-25 17:54 | 56.18700 | 81.85172 | 22722 ft | 406 kts | 130° |
| 2026-04-25 17:54 | 56.17055 | 81.89242 | 22260 ft | 402 kts | 131° |
| 2026-04-25 17:54 | 56.15415 | 81.93291 | 21816 ft | 398 kts | 131° |
| 2026-04-25 17:55 | 56.13794 | 81.97287 | 21364 ft | 395 kts | 131° |
| 2026-04-25 17:55 | 56.12178 | 82.01264 | 20925 ft | 392 kts | 131° |
| 2026-04-25 17:55 | 56.10577 | 82.05197 | 20493 ft | 389 kts | 131° |
| 2026-04-25 17:55 | 56.08987 | 82.09098 | 20064 ft | 387 kts | 131° |
| 2026-04-25 17:56 | 56.07406 | 82.12970 | 19642 ft | 384 kts | 131° |
| 2026-04-25 17:56 | 56.05831 | 82.16825 | 19210 ft | 382 kts | 131° |
| 2026-04-25 17:56 | 56.04267 | 82.20642 | 18790 ft | 380 kts | 131° |
| 2026-04-25 17:56 | 56.02698 | 82.24439 | 18366 ft | 377 kts | 134° |
| 2026-04-25 17:57 | 56.00809 | 82.27521 | 17950 ft | 361 kts | 154° |
| 2026-04-25 17:57 | 55.98796 | 82.29629 | 17598 ft | 355 kts | 156° |
| 2026-04-25 17:57 | 55.96646 | 82.31779 | 17174 ft | 353 kts | 156° |
| 2026-04-25 17:57 | 55.95950 | 82.32470 | 17032 ft | 352 kts | 156° |
| 2026-04-25 17:58 | 55.92387 | 82.36035 | 16343 ft | 349 kts | 156° |
| 2026-04-25 17:58 | 55.90282 | 82.38164 | 15934 ft | 347 kts | 155° |
| 2026-04-25 17:58 | 55.88326 | 82.40152 | 15562 ft | 345 kts | 155° |
| 2026-04-25 17:58 | 55.86248 | 82.42267 | 15159 ft | 344 kts | 155° |
| 2026-04-25 17:59 | 55.84200 | 82.44350 | 14769 ft | 342 kts | 155° |
| 2026-04-25 17:59 | 55.82132 | 82.46425 | 14366 ft | 339 kts | 158° |
| 2026-04-25 17:59 | 55.79927 | 82.47615 | 13932 ft | 329 kts | 179° |
| 2026-04-25 17:59 | 55.77651 | 82.47838 | 13478 ft | 326 kts | 182° |
| 2026-04-25 18:00 | 55.76123 | 82.47923 | 13190 ft | 325 kts | 183° |
| 2026-04-25 18:00 | 55.73138 | 82.48071 | 12639 ft | 322 kts | 183° |
| 2026-04-25 18:00 | 55.70900 | 82.48193 | 12246 ft | 321 kts | 183° |
| 2026-04-25 18:00 | 55.68677 | 82.48327 | 11853 ft | 319 kts | 182° |
| 2026-04-25 18:01 | 55.66538 | 82.48464 | 11477 ft | 317 kts | 182° |
| 2026-04-25 18:01 | 55.64289 | 82.48613 | 11097 ft | 316 kts | 182° |
| 2026-04-25 18:01 | 55.62837 | 82.48711 | 10835 ft | 315 kts | 182° |
| 2026-04-25 18:01 | 55.59945 | 82.48911 | 10576 ft | 305 kts | 182° |
| 2026-04-25 18:02 | 55.58554 | 82.49008 | 10474 ft | 299 kts | 182° |
| 2026-04-25 18:02 | 55.56504 | 82.49150 | 10343 ft | 290 kts | 182° |
| 2026-04-25 18:02 | 55.54517 | 82.49287 | 10218 ft | 282 kts | 182° |
| 2026-04-25 18:02 | 55.52581 | 82.49427 | 10096 ft | 274 kts | 182° |
| 2026-04-25 18:03 | 55.50699 | 82.49566 | 9896 ft | 270 kts | 182° |
| 2026-04-25 18:03 | 55.48828 | 82.49703 | 9609 ft | 268 kts | 182° |
| 2026-04-25 18:03 | 55.47354 | 82.49810 | 9401 ft | 267 kts | 182° |
| 2026-04-25 18:03 | 55.45505 | 82.49944 | 9128 ft | 265 kts | 182° |
| 2026-04-25 18:04 | 55.43669 | 82.50078 | 8861 ft | 263 kts | 182° |
| 2026-04-25 18:04 | 55.41845 | 82.50211 | 8589 ft | 262 kts | 182° |
| 2026-04-25 18:04 | 55.40053 | 82.50342 | 8330 ft | 260 kts | 182° |
| 2026-04-25 18:04 | 55.38230 | 82.50475 | 8058 ft | 259 kts | 181° |
| 2026-04-25 18:05 | 55.36455 | 82.50605 | 7799 ft | 257 kts | 181° |
| 2026-04-25 18:05 | 55.34674 | 82.50734 | 7546 ft | 256 kts | 181° |
| 2026-04-25 18:05 | 55.32896 | 82.50864 | 7283 ft | 255 kts | 181° |
| 2026-04-25 18:05 | 55.31175 | 82.51592 | 7034 ft | 259 kts | 154° |
| 2026-04-25 18:06 | 55.29762 | 82.53630 | 6955 ft | 262 kts | 135° |
| 2026-04-25 18:06 | 55.28550 | 82.56040 | 6854 ft | 273 kts | 133° |
| 2026-04-25 18:06 | 55.27287 | 82.58611 | 6715 ft | 276 kts | 133° |
| 2026-04-25 18:06 | 55.26047 | 82.61126 | 6599 ft | 277 kts | 133° |
| 2026-04-25 18:07 | 55.24790 | 82.63648 | 6465 ft | 278 kts | 134° |
| 2026-04-25 18:07 | 55.23521 | 82.66174 | 6345 ft | 274 kts | 134° |
| 2026-04-25 18:07 | 55.22243 | 82.68705 | 6157 ft | 272 kts | 134° |
| 2026-04-25 18:07 | 55.21102 | 82.70959 | 6036 ft | 266 kts | 134° |
| 2026-04-25 18:08 | 55.19973 | 82.73527 | 5783 ft | 270 kts | 123° |
| 2026-04-25 18:08 | 55.19090 | 82.76426 | 5509 ft | 270 kts | 120° |
| 2026-04-25 18:08 | 55.18242 | 82.79364 | 5212 ft | 270 kts | 120° |
| 2026-04-25 18:08 | 55.17382 | 82.82279 | 4917 ft | 269 kts | 121° |
| 2026-04-25 18:09 | 55.16486 | 82.85134 | 4609 ft | 266 kts | 129° |
| 2026-04-25 18:09 | 55.15129 | 82.87200 | 4309 ft | 257 kts | 156° |
| 2026-04-25 18:09 | 55.13522 | 82.88229 | 4052 ft | 251 kts | 166° |
| 2026-04-25 18:09 | 55.12443 | 82.88778 | 3867 ft | 250 kts | 167° |
| 2026-04-25 18:10 | 55.10174 | 82.89073 | 3496 ft | 243 kts | 188° |
| 2026-04-25 18:10 | 55.08538 | 82.88742 | 3327 ft | 232 kts | 187° |
| 2026-04-25 18:10 | 55.06998 | 82.88456 | 3226 ft | 213 kts | 187° |
| 2026-04-25 18:10 | 55.05584 | 82.88201 | 3094 ft | 194 kts | 187° |
| 2026-04-25 18:11 | 55.04317 | 82.87849 | 2958 ft | 176 kts | 203° |
| 2026-04-25 18:11 | 55.03438 | 82.86588 | 2816 ft | 156 kts | 231° |
| 2026-04-25 18:11 | 55.03067 | 82.84832 | 2432 ft | 158 kts | 258° |
| 2026-04-25 18:11 | 55.02916 | 82.82953 | 2058 ft | 157 kts | 254° |
| 2026-04-25 18:12 | 55.02741 | 82.81131 | 2053 ft | 149 kts | 254° |
| 2026-04-25 18:12 | 55.02575 | 82.79362 | 1985 ft | 149 kts | 253° |
| 2026-04-25 18:12 | 55.02406 | 82.77556 | 1742 ft | 150 kts | 253° |
| 2026-04-25 18:12 | 55.02229 | 82.75797 | 1522 ft | 148 kts | 254° |
| 2026-04-25 18:13 | 55.02060 | 82.73976 | 1176 ft | 152 kts | 258° |
| 2026-04-25 18:13 | 55.01896 | 82.72119 | 943 ft | 157 kts | 258° |
| 2026-04-25 18:13 | 55.01715 | 82.70245 | 686 ft | 155 kts | 258° |
| 2026-04-25 18:14 | 55.01396 | 82.66775 | 375 ft | 133 kts | 258° |
| 2026-04-25 18:14 | 55.01272 | 82.65382 | 372 ft | 92 kts | 261° |
| 2026-04-25 18:14 | 55.01198 | 82.64565 | 372 ft | 50 kts | 260° |
| 2026-04-25 18:14 | 55.01166 | 82.64210 | 374 ft | 19 kts | 255° |
| 2026-04-25 18:15 | 55.01129 | 82.64000 | 374 ft | 18 kts | 215° |
| 2026-04-25 18:15 | 55.01012 | 82.64011 | 373 ft | 10 kts | 171° |
| 2026-04-25 18:15 | 55.01010 | 82.64012 | 373 ft | 0 kts | 171° |
| 2026-04-25 18:16 | 55.00997 | 82.64027 | 372 ft | 4 kts | 123° |
| 2026-04-25 18:17 | 55.00982 | 82.64138 | 372 ft | 14 kts | 102° |
| 2026-04-25 18:17 | 55.00962 | 82.64309 | 372 ft | 14 kts | 102° |
| 2026-04-25 18:17 | 55.00940 | 82.64476 | 372 ft | 14 kts | 103° |
| 2026-04-25 18:17 | 55.00920 | 82.64635 | 372 ft | 13 kts | 102° |
| 2026-04-25 18:18 | 55.00900 | 82.64788 | 372 ft | 13 kts | 104° |
| 2026-04-25 18:18 | 55.00881 | 82.64935 | 372 ft | 12 kts | 102° |
| 2026-04-25 18:18 | 55.00875 | 82.65082 | 372 ft | 12 kts | 82° |
| 2026-04-25 18:18 | 55.00884 | 82.65222 | 372 ft | 11 kts | 88° |
| 2026-04-25 18:19 | 55.00890 | 82.65354 | 372 ft | 11 kts | 79° |
| 2026-04-25 18:19 | 55.00901 | 82.65482 | 372 ft | 10 kts | 80° |
| 2026-04-25 18:19 | 55.00913 | 82.65605 | 372 ft | 10 kts | 81° |
| 2026-04-25 18:19 | 55.00924 | 82.65725 | 372 ft | 10 kts | 81° |
| 2026-04-25 18:20 | 55.00934 | 82.65841 | 372 ft | 10 kts | 81° |
| 2026-04-25 18:20 | 55.00944 | 82.65955 | 372 ft | 9 kts | 81° |
| 2026-04-25 18:20 | 55.00954 | 82.66066 | 372 ft | 9 kts | 81° |
| 2026-04-25 18:20 | 55.00977 | 82.66167 | 372 ft | 9 kts | 64° |
| 2026-04-25 18:21 | 55.00998 | 82.66266 | 372 ft | 9 kts | 71° |
| 2026-04-25 18:21 | 55.01018 | 82.66364 | 372 ft | 8 kts | 70° |
| 2026-04-25 18:21 | 55.01036 | 82.66447 | 372 ft | 6 kts | 69° |
| 2026-04-25 18:21 | 55.01042 | 82.66486 | 372 ft | 3 kts | 87° |
| 2026-04-25 18:22 | 55.01031 | 82.66517 | 372 ft | 4 kts | 142° |
| 2026-04-25 18:22 | 55.01022 | 82.66524 | 372 ft | 4 kts | 156° |
| 2026-04-25 18:22 | 55.00972 | 82.66542 | 372 ft | 2 kts | 171° |
| 2026-04-25 18:22 | 55.00965 | 82.66544 | 372 ft | 0 kts | 171° |